Time;durP1;ratioP1;P1;durP2;ratioP2;P2;SDS_P1;SDS_P2;PMS_P1;PMS_P2;Temp;Humidity;BMP_temperature;BMP_pressure;BME280_temperature;BME280_humidity;BME280_pressure;Samples;Min_cycle;Max_cycle;Signal;HPM_P1;HPM_P2
2023/06/16 00:01:23;;;;;;;;;8.33;8.33;;;;;26.10;31.80;101166.81;6120365;23;45400;-76
2023/06/16 00:03:49;;;;;;;;;9.33;7.33;;;;;26.11;32.03;101169.50;6119537;23;45403;-75
2023/06/16 00:06:16;;;;;;;;;9.33;9.33;;;;;26.17;32.06;101184.88;6120933;23;45235;-75
2023/06/16 00:08:44;;;;;;;;;9.33;7.33;;;;;26.15;31.95;101181.31;6123442;23;45201;-76
2023/06/16 00:11:14;;;;;;;;;9.67;9.00;;;;;26.00;32.04;101168.94;6121380;23;45373;-76
2023/06/16 00:13:39;;;;;;;;;9.33;7.67;;;;;26.03;32.00;101174.34;6120339;23;45518;-73
2023/06/16 00:16:05;;;;;;;;;7.00;7.00;;;;;26.08;32.13;101186.03;6121479;23;46234;-72
2023/06/16 00:18:31;;;;;;;;;9.67;8.00;;;;;25.99;32.05;101178.13;6120906;23;45227;-73
2023/06/16 00:21:01;;;;;;;;;7.00;6.67;;;;;25.91;32.36;101170.09;6122169;23;45183;-74
2023/06/16 00:23:27;;;;;;;;;8.00;8.00;;;;;26.06;32.32;101198.00;6127031;23;45364;-75
2023/06/16 00:25:53;;;;;;;;;10.33;8.33;;;;;25.78;32.50;101155.00;6135600;23;45459;-73
2023/06/16 00:28:20;;;;;;;;;13.33;10.00;;;;;25.96;32.21;101182.81;6126229;23;45283;-75
2023/06/16 00:30:46;;;;;;;;;10.33;9.00;;;;;25.98;32.58;101195.50;6117703;23;45422;-74
2023/06/16 00:33:12;;;;;;;;;5.33;5.33;;;;;25.98;32.10;101198.22;6119316;23;45527;-74
2023/06/16 00:35:39;;;;;;;;;7.33;7.33;;;;;25.71;32.41;101154.31;6118567;23;47048;-73
2023/06/16 00:38:05;;;;;;;;;6.00;6.00;;;;;25.93;32.65;101190.13;6119651;23;45244;-74
2023/06/16 00:40:30;;;;;;;;;9.00;7.33;;;;;25.90;32.48;101192.97;6119510;23;45414;-75
2023/06/16 00:42:58;;;;;;;;;7.00;7.00;;;;;25.73;32.75;101160.63;6121260;23;45233;-74
2023/06/16 00:45:24;;;;;;;;;10.67;10.00;;;;;25.85;32.96;101192.19;6117766;23;48120;-72
2023/06/16 00:47:51;;;;;;;;;10.00;10.00;;;;;25.80;33.22;101193.28;6119557;23;45272;-74
2023/06/16 00:50:18;;;;;;;;;12.33;9.00;;;;;25.77;33.22;101194.25;6119525;23;45258;-75
2023/06/16 00:52:44;;;;;;;;;14.67;8.67;;;;;25.77;32.98;101198.84;6117734;23;45457;-74
2023/06/16 00:55:11;;;;;;;;;8.67;8.33;;;;;25.70;33.20;101182.59;6117071;23;46965;-76
2023/06/16 00:57:37;;;;;;;;;10.00;9.33;;;;;25.31;33.23;101122.66;6119948;23;45257;-75
2023/06/16 01:00:03;;;;;;;;;8.33;8.33;;;;;25.64;33.52;101177.34;6117695;23;45375;-76
2023/06/16 01:02:28;;;;;;;;;12.33;11.00;;;;;25.71;33.46;101197.19;6119243;23;45256;-73
2023/06/16 01:04:54;;;;;;;;;13.33;9.00;;;;;25.65;33.21;101192.78;6118003;23;45371;-74
2023/06/16 01:07:33;;;;;;;;;9.67;7.67;;;;;25.62;33.47;101194.72;6117841;23;45357;-74
2023/06/16 01:10:24;;;;;;;;;11.33;8.00;;;;;25.60;33.66;101194.75;6118652;23;45433;-74
2023/06/16 01:13:17;;;;;;;;;10.33;7.33;;;;;25.58;33.82;101193.91;6063806;23;46186;-75
2023/06/16 01:15:44;;;;;;;;;9.00;8.00;;;;;25.55;33.81;101194.88;6117757;23;47273;-75
2023/06/16 01:18:14;;;;;;;;;8.67;8.67;;;;;25.54;33.96;101193.13;6119674;23;45261;-75
2023/06/16 01:20:51;;;;;;;;;11.00;11.00;;;;;25.40;34.09;101176.19;6119827;23;45277;-75
2023/06/16 01:23:47;;;;;;;;;13.33;13.00;;;;;25.49;34.24;101191.44;6118925;23;45302;-75
2023/06/16 01:26:13;;;;;;;;;13.00;13.00;;;;;25.34;33.85;101171.81;6118344;23;45285;-76
2023/06/16 01:28:42;;;;;;;;;11.33;9.00;;;;;25.44;34.06;101190.66;6120696;23;45383;-77
2023/06/16 01:31:12;;;;;;;;;12.33;9.00;;;;;25.39;34.11;101179.84;6119173;23;45479;-75
2023/06/16 01:33:39;;;;;;;;;9.00;9.00;;;;;25.39;34.13;101182.59;6119317;23;46039;-77
2023/06/16 01:36:06;;;;;;;;;10.33;8.00;;;;;25.37;34.52;101184.47;6119577;23;46654;-76
2023/06/16 01:38:32;;;;;;;;;10.67;8.67;;;;;25.20;34.30;101158.47;6119144;23;45329;-75
2023/06/16 01:41:00;;;;;;;;;8.67;8.67;;;;;25.34;34.55;101180.00;6119522;23;45493;-75
2023/06/16 01:43:27;;;;;;;;;9.00;9.00;;;;;25.33;34.21;101185.53;6118445;23;45393;-74
2023/06/16 01:45:53;;;;;;;;;9.00;9.00;;;;;25.28;34.43;101182.91;6119580;23;45401;-74
2023/06/16 01:48:20;;;;;;;;;8.33;7.67;;;;;25.12;34.85;101156.91;6120056;23;45263;-75
2023/06/16 01:50:46;;;;;;;;;14.00;12.33;;;;;25.23;35.10;101181.19;6120762;23;45311;-74
2023/06/16 01:53:12;;;;;;;;;12.33;9.67;;;;;25.18;34.71;101182.22;6119818;23;45309;-75
2023/06/16 01:55:37;;;;;;;;;9.33;9.33;;;;;25.14;34.72;101180.50;6117609;23;48283;-75
2023/06/16 01:58:04;;;;;;;;;7.33;7.00;;;;;25.01;34.65;101166.28;6118325;23;49340;-74
2023/06/16 02:00:36;;;;;;;;;7.33;7.33;;;;;24.96;35.27;101160.06;6121050;23;45291;-75
2023/06/16 02:03:28;;;;;;;;;9.00;9.00;;;;;24.91;35.00;101158.38;6120902;23;45298;-71
2023/06/16 02:05:54;;;;;;;;;7.33;7.33;;;;;25.05;35.06;101188.09;6119795;23;46751;-74
2023/06/16 02:08:25;;;;;;;;;5.67;5.67;;;;;24.95;35.32;101171.91;6120192;23;45320;-75
2023/06/16 02:10:51;;;;;;;;;11.33;11.33;;;;;24.60;35.00;101119.09;6123187;23;45406;-74
2023/06/16 02:13:17;;;;;;;;;10.33;8.67;;;;;24.93;35.41;101179.28;6125320;23;45536;-74
2023/06/16 02:15:42;;;;;;;;;9.33;8.00;;;;;24.72;35.27;101145.19;6127817;23;45485;-74
2023/06/16 02:18:09;;;;;;;;;9.67;9.00;;;;;24.88;35.45;101174.84;6121882;23;45334;-75
2023/06/16 02:20:35;;;;;;;;;9.33;9.33;;;;;24.87;35.24;101178.53;6120569;23;45343;-75
2023/06/16 02:23:01;;;;;;;;;10.67;9.00;;;;;24.76;35.12;101170.59;6121200;23;45280;-74
2023/06/16 02:25:27;;;;;;;;;7.67;7.67;;;;;24.83;35.41;101186.81;6119713;23;45463;-73
2023/06/16 02:27:52;;;;;;;;;9.67;9.67;;;;;24.83;35.27;101183.16;6119548;23;45585;-74
2023/06/16 02:30:20;;;;;;;;;9.67;7.00;;;;;24.84;35.65;101179.50;6118122;23;45567;-73
2023/06/16 02:32:48;;;;;;;;;11.33;9.33;;;;;24.83;35.14;101189.53;6120326;23;45334;-72
2023/06/16 02:35:14;;;;;;;;;9.67;9.67;;;;;24.80;35.23;101189.63;6118951;23;47479;-74
2023/06/16 02:37:41;;;;;;;;;9.00;7.67;;;;;24.77;35.14;101181.50;6121223;23;45279;-74
2023/06/16 02:40:08;;;;;;;;;9.00;8.00;;;;;24.76;35.52;101187.88;6121056;23;45380;-72
2023/06/16 02:42:33;;;;;;;;;9.33;7.33;;;;;24.52;35.16;101144.75;6121138;23;45386;-72
2023/06/16 02:44:59;;;;;;;;;8.33;8.33;;;;;24.78;35.38;101185.13;6119347;23;45616;-72
2023/06/16 02:47:25;;;;;;;;;8.00;8.00;;;;;24.68;35.63;101173.53;6119611;23;45387;-74
2023/06/16 02:49:51;;;;;;;;;11.00;8.33;;;;;24.69;35.82;101182.63;6120948;23;45281;-74
2023/06/16 02:52:17;;;;;;;;;11.33;10.33;;;;;24.59;35.66;101177.41;6118570;23;45612;-75
2023/06/16 02:54:42;;;;;;;;;11.00;9.67;;;;;24.61;35.64;101178.25;6120256;23;45531;-74
2023/06/16 02:57:08;;;;;;;;;10.00;8.33;;;;;24.60;35.78;101186.47;6121001;23;45197;-73
2023/06/16 02:59:34;;;;;;;;;12.67;9.33;;;;;24.51;36.05;101179.38;6118659;23;45637;-72
2023/06/16 03:02:00;;;;;;;;;10.00;9.00;;;;;24.45;36.23;101185.91;6120225;23;45553;-74
2023/06/16 03:04:25;;;;;;;;;14.00;12.00;;;;;24.41;36.48;101186.00;6118581;23;47157;-72
2023/06/16 03:06:57;;;;;;;;;9.67;8.00;;;;;24.35;36.58;101183.44;6121053;23;45264;-73
2023/06/16 03:09:23;;;;;;;;;6.67;6.67;;;;;24.32;36.01;101189.88;6120640;23;45385;-72
2023/06/16 03:11:48;;;;;;;;;7.00;7.00;;;;;24.28;36.58;101185.41;6120669;23;45402;-74
2023/06/16 03:14:13;;;;;;;;;9.67;8.00;;;;;24.12;36.75;101162.13;6119867;23;45410;-75
2023/06/16 03:16:40;;;;;;;;;9.00;9.00;;;;;24.19;36.93;101180.19;6119561;23;45386;-74
2023/06/16 03:19:06;;;;;;;;;7.33;7.33;;;;;23.72;37.08;101120.22;6119479;23;45391;-74
2023/06/16 03:21:31;;;;;;;;;14.33;10.00;;;;;24.04;37.12;101192.31;6120879;23;45319;-73
2023/06/16 03:23:56;;;;;;;;;10.67;8.67;;;;;23.34;37.15;101067.41;6118213;23;46044;-74
2023/06/16 03:26:22;;;;;;;;;9.33;7.33;;;;;23.84;37.49;101170.94;6119817;23;45247;-74
2023/06/16 03:28:47;;;;;;;;;8.33;8.33;;;;;23.81;37.82;101176.41;6120660;23;45191;-74
2023/06/16 03:31:13;;;;;;;;;10.67;9.67;;;;;23.63;37.61;101145.88;6117213;23;45606;-74
2023/06/16 03:33:39;;;;;;;;;8.00;7.00;;;;;23.83;37.57;101183.69;6117451;23;46403;-77
2023/06/16 03:36:05;;;;;;;;;9.67;7.00;;;;;23.81;37.48;101184.59;6120338;23;45284;-76
2023/06/16 03:38:30;;;;;;;;;7.00;6.67;;;;;23.89;37.89;101199.00;6120451;23;45403;-75
2023/06/16 03:40:56;;;;;;;;;8.33;8.33;;;;;23.88;37.50;101194.50;6122137;23;45436;-74
2023/06/16 03:43:21;;;;;;;;;9.33;8.33;;;;;23.81;37.87;101187.34;6122284;23;45411;-73
2023/06/16 03:45:47;;;;;;;;;10.00;8.67;;;;;23.77;37.49;101194.69;6122083;23;45427;-73
2023/06/16 03:48:13;;;;;;;;;14.33;10.00;;;;;23.74;37.81;101178.38;6120302;23;45298;-74
2023/06/16 03:50:39;;;;;;;;;10.00;9.00;;;;;23.81;38.06;101190.06;6118389;23;45471;-73
2023/06/16 03:53:04;;;;;;;;;11.67;9.00;;;;;23.79;38.01;101186.47;6119364;23;45831;-74
2023/06/16 03:55:29;;;;;;;;;13.00;11.33;;;;;23.86;38.06;101200.00;6119040;23;45418;-74
2023/06/16 03:57:55;;;;;;;;;8.33;8.33;;;;;23.88;37.66;101198.13;6119265;23;45445;-75
2023/06/16 04:00:20;;;;;;;;;10.67;10.33;;;;;23.87;37.96;101181.78;6121209;23;45288;-75
2023/06/16 04:02:46;;;;;;;;;9.33;9.33;;;;;23.89;37.79;101193.56;6127394;23;45557;-72
2023/06/16 04:05:12;;;;;;;;;9.00;7.00;;;;;23.90;37.96;101192.63;6127455;23;45248;-74
2023/06/16 04:07:37;;;;;;;;;9.00;8.67;;;;;23.93;37.84;101195.31;6120980;23;45238;-74
2023/06/16 04:10:03;;;;;;;;;7.67;7.67;;;;;23.84;37.81;101181.84;6120488;23;45414;-74
2023/06/16 04:12:29;;;;;;;;;9.00;9.00;;;;;23.92;37.72;101194.41;6119734;23;46254;-72
2023/06/16 04:14:54;;;;;;;;;8.67;8.67;;;;;23.84;37.96;101185.50;6120648;23;45414;-73
2023/06/16 04:17:21;;;;;;;;;12.67;10.00;;;;;23.82;37.95;101184.59;6121079;23;45426;-72
2023/06/16 04:19:46;;;;;;;;;11.33;11.33;;;;;23.85;38.19;101197.28;6120958;23;45399;-72
2023/06/16 04:22:12;;;;;;;;;8.33;8.00;;;;;23.89;38.29;101209.94;6119635;23;46539;-73
2023/06/16 04:24:37;;;;;;;;;11.33;10.00;;;;;23.89;37.80;101209.94;6119463;23;45525;-72
2023/06/16 04:27:03;;;;;;;;;12.33;12.00;;;;;23.75;37.98;101188.38;6117334;23;45239;-73
2023/06/16 04:29:29;;;;;;;;;20.50;15.00;;;;;23.77;38.20;101196.53;6117633;23;45567;-73
2023/06/16 04:31:59;;;;;;;;;12.33;11.67;;;;;23.84;38.22;101206.41;6119840;23;45854;-75
2023/06/16 04:34:26;;;;;;;;;16.00;14.00;;;;;23.85;38.28;101208.22;6119429;23;45395;-75
2023/06/16 04:36:51;;;;;;;;;9.33;9.00;;;;;23.86;38.43;101212.75;6119701;23;45412;-76
2023/06/16 04:39:17;;;;;;;;;12.00;10.00;;;;;23.66;38.16;101172.19;6118411;23;45492;-74
2023/06/16 04:41:42;;;;;;;;;12.33;8.67;;;;;23.89;38.44;101213.56;6119985;23;45919;-71
2023/06/16 04:44:08;;;;;;;;;6.00;6.00;;;;;23.86;38.18;101207.28;6117908;23;45310;-73
2023/06/16 04:46:34;;;;;;;;;10.67;9.33;;;;;23.91;38.37;101208.97;6119776;23;45446;-73
2023/06/16 04:48:59;;;;;;;;;8.67;8.67;;;;;23.94;38.02;101213.50;6120131;23;45246;-74
2023/06/16 04:51:26;;;;;;;;;15.00;12.67;;;;;23.89;38.30;101208.13;6120051;23;45538;-73
2023/06/16 04:53:52;;;;;;;;;12.67;12.00;;;;;23.78;38.23;101181.97;6119712;23;45367;-72
2023/06/16 04:56:17;;;;;;;;;13.67;12.33;;;;;23.85;38.11;101197.28;6118405;23;45621;-73
2023/06/16 04:58:42;;;;;;;;;12.67;11.67;;;;;23.82;38.24;101194.59;6120343;23;45218;-73
2023/06/16 05:01:08;;;;;;;;;11.67;10.67;;;;;23.89;38.52;101212.66;6119498;23;45965;-73
2023/06/16 05:03:33;;;;;;;;;9.67;9.67;;;;;23.87;38.12;101210.00;6118286;23;45375;-74
2023/06/16 05:05:59;;;;;;;;;9.67;9.67;;;;;23.83;38.50;101194.59;6122030;23;45579;-74
2023/06/16 05:08:24;;;;;;;;;11.00;10.00;;;;;23.90;38.39;101207.16;6131611;23;45162;-72
2023/06/16 05:10:50;;;;;;;;;10.67;9.67;;;;;23.72;38.62;101183.88;6131483;23;46063;-74
2023/06/16 05:13:15;;;;;;;;;15.00;13.00;;;;;23.90;38.81;101203.56;6129937;23;45084;-75
2023/06/16 05:15:41;;;;;;;;;16.50;15.25;;;;;23.91;38.77;101205.34;6135619;23;45001;-73
2023/06/16 05:18:06;;;;;;;;;10.25;10.00;;;;;23.96;38.36;101205.25;6135225;23;45029;-74
2023/06/16 05:20:32;;;;;;;;;18.00;13.25;;;;;23.77;38.40;101161.94;6136795;23;56740;-72
2023/06/16 05:22:58;;;;;;;;;12.33;10.67;;;;;23.92;38.06;101191.69;6137152;23;44913;-75
2023/06/16 05:25:23;;;;;;;;;15.75;13.00;;;;;24.00;38.00;101205.13;6135713;23;45785;-72
2023/06/16 05:27:48;;;;;;;;;13.25;10.75;;;;;24.00;38.31;101198.78;6134137;23;45348;-72
2023/06/16 05:30:14;;;;;;;;;13.50;13.50;;;;;23.94;38.31;101190.72;6132335;23;45189;-72
2023/06/16 05:32:39;;;;;;;;;11.33;11.33;;;;;24.06;38.55;101205.00;6133940;23;45245;-75
2023/06/16 05:35:07;;;;;;;;;13.33;10.33;;;;;24.11;38.65;101207.66;6133017;23;44814;-74
2023/06/16 05:37:32;;;;;;;;;13.67;13.67;;;;;23.98;37.89;101189.75;6126427;23;45272;-75
2023/06/16 05:39:58;;;;;;;;;11.67;10.00;;;;;24.03;38.29;101190.53;6125047;23;45202;-73
2023/06/16 05:42:23;;;;;;;;;20.00;16.75;;;;;23.96;38.06;101186.16;6123308;23;45710;-73
2023/06/16 05:44:49;;;;;;;;;17.75;17.00;;;;;23.98;37.79;101193.38;6121623;23;45388;-74
2023/06/16 05:47:14;;;;;;;;;11.33;11.00;;;;;24.07;37.69;101203.16;6122978;23;45395;-73
2023/06/16 05:49:40;;;;;;;;;10.00;9.33;;;;;24.08;37.51;101213.16;6148919;23;46805;-74
2023/06/16 05:52:06;;;;;;;;;13.33;13.00;;;;;24.06;37.73;101202.28;6125749;23;45522;-71
2023/06/16 05:54:33;;;;;;;;;16.67;13.33;;;;;24.06;37.98;101196.81;6122395;23;45499;-75
2023/06/16 05:56:58;;;;;;;;;15.00;12.00;;;;;24.08;38.04;101200.41;6118823;23;45307;-74
2023/06/16 05:59:25;;;;;;;;;16.75;14.25;;;;;24.13;37.67;101196.69;6119871;23;46743;-75
2023/06/16 06:01:51;;;;;;;;;15.33;11.33;;;;;24.09;37.77;101185.84;6119070;23;45318;-76
2023/06/16 06:04:21;;;;;;;;;14.00;13.75;;;;;24.21;37.61;101202.88;6120202;23;45625;-75
2023/06/16 06:06:48;;;;;;;;;16.75;14.75;;;;;24.24;37.16;101203.69;6120656;23;45438;-75
2023/06/16 06:09:13;;;;;;;;;14.67;13.33;;;;;24.23;37.63;101203.72;6121910;23;46007;-72
2023/06/16 06:11:39;;;;;;;;;13.33;12.67;;;;;24.25;37.90;101202.78;6120028;23;45265;-75
2023/06/16 06:14:05;;;;;;;;;15.33;11.67;;;;;24.31;37.75;101204.44;6120912;23;45307;-73
2023/06/16 06:16:31;;;;;;;;;39.25;33.75;;;;;24.23;37.64;101173.69;6120566;23;45632;-74
2023/06/16 06:18:56;;;;;;;;;19.00;15.00;;;;;24.34;37.42;101185.25;6120710;23;54735;-74
2023/06/16 06:21:21;;;;;;;;;13.50;13.25;;;;;24.49;37.40;101207.69;6119933;23;45524;-74
2023/06/16 06:23:47;;;;;;;;;14.33;11.67;;;;;24.29;37.64;101162.63;6121235;23;45819;-75
2023/06/16 06:26:13;;;;;;;;;16.75;13.25;;;;;24.59;37.37;101212.91;6119007;23;45564;-75
2023/06/16 06:28:39;;;;;;;;;26.75;22.75;;;;;24.32;37.44;101150.72;6119273;23;47334;-74
2023/06/16 06:31:04;;;;;;;;;18.75;18.75;;;;;24.72;37.18;101216.25;6118377;23;45379;-73
2023/06/16 06:33:30;;;;;;;;;18.75;15.75;;;;;24.64;36.70;101193.69;6120205;23;45228;-77
2023/06/16 06:35:55;;;;;;;;;22.00;18.25;;;;;24.52;37.08;101173.00;6120253;23;45419;-76
2023/06/16 06:38:20;;;;;;;;;17.67;15.67;;;;;24.78;37.06;101216.09;6119408;23;45446;-72
2023/06/16 06:40:47;;;;;;;;;16.00;13.33;;;;;24.83;37.03;101233.28;6117672;23;45288;-75
2023/06/16 06:43:12;;;;;;;;;15.75;14.50;;;;;24.87;36.65;101227.72;6120866;23;45414;-74
2023/06/16 06:45:37;;;;;;;;;20.33;14.67;;;;;24.87;36.59;101234.09;6119825;23;45228;-74
2023/06/16 06:48:03;;;;;;;;;10.67;10.67;;;;;24.79;36.45;101217.00;6118790;23;45510;-73
2023/06/16 06:50:29;;;;;;;;;26.25;23.50;;;;;24.96;36.59;101232.94;6119329;23;45329;-73
2023/06/16 06:52:54;;;;;;;;;36.75;27.75;;;;;24.88;35.86;101208.56;6119034;23;45222;-73
2023/06/16 06:55:20;;;;;;;;;18.75;15.25;;;;;25.11;35.28;101243.50;6125520;23;45181;-73
2023/06/16 06:57:46;;;;;;;;;16.33;15.33;;;;;25.12;35.05;101244.41;6124046;23;47071;-73
2023/06/16 07:00:12;;;;;;;;;12.67;12.67;;;;;25.19;35.07;101248.75;6120136;23;45291;-75
2023/06/16 07:02:37;;;;;;;;;18.33;15.33;;;;;25.31;35.07;101251.22;6120397;23;45316;-74
2023/06/16 07:05:03;;;;;;;;;15.67;14.33;;;;;25.36;35.22;101238.31;6119273;23;45562;-76
2023/06/16 07:07:28;;;;;;;;;16.33;16.33;;;;;25.49;34.57;101257.09;6118608;23;45423;-76
2023/06/16 07:09:54;;;;;;;;;18.33;17.00;;;;;25.56;34.25;101262.38;6120170;23;45384;-75
2023/06/16 07:12:19;;;;;;;;;17.00;15.33;;;;;25.46;34.09;101243.50;6118408;23;45326;-63
2023/06/16 07:14:49;;;;;;;;;15.00;15.00;;;;;25.61;33.97;101262.25;6117050;23;45376;-63
2023/06/16 07:17:14;;;;;;;;;14.33;12.67;;;;;25.58;34.25;101248.66;6118443;23;45438;-64
2023/06/16 07:19:40;;;;;;;;;18.50;15.75;;;;;25.64;34.17;101258.50;6119074;23;45194;-64
2023/06/16 07:22:05;;;;;;;;;13.33;13.00;;;;;25.51;34.00;101230.63;6119966;23;45350;-64
2023/06/16 07:24:31;;;;;;;;;14.33;14.00;;;;;25.63;33.65;101262.19;6119657;23;45200;-63
2023/06/16 07:26:57;;;;;;;;;16.67;14.33;;;;;25.64;34.06;101263.97;6118684;23;45437;-63
2023/06/16 07:29:22;;;;;;;;;14.75;14.75;;;;;25.65;34.01;101260.31;6117792;23;45579;-63
2023/06/16 07:31:47;;;;;;;;;15.67;14.00;;;;;25.81;33.62;101266.25;6119208;23;45604;-64
2023/06/16 07:34:13;;;;;;;;;16.25;16.25;;;;;25.88;33.75;101263.28;6119479;23;47220;-65
2023/06/16 07:36:38;;;;;;;;;43.75;32.75;;;;;25.98;33.68;101263.06;6117966;23;45722;-64
2023/06/16 07:39:04;;;;;;;;;17.75;17.00;;;;;25.99;33.35;101271.22;6119586;23;45877;-65
2023/06/16 07:41:29;;;;;;;;;14.33;14.33;;;;;25.98;32.88;101255.72;6119714;23;45348;-65
2023/06/16 07:43:54;;;;;;;;;19.33;18.00;;;;;26.16;32.96;101264.34;6119451;23;45414;-65
2023/06/16 07:46:20;;;;;;;;;18.67;15.00;;;;;26.21;32.97;101268.72;6118654;23;47920;-65
2023/06/16 07:48:46;;;;;;;;;18.75;18.75;;;;;26.33;32.46;101263.81;6118622;23;45367;-64
2023/06/16 07:51:12;;;;;;;;;21.00;16.00;;;;;26.36;32.43;101252.78;6117806;23;45516;-64
2023/06/16 07:53:39;;;;;;;;;15.00;14.33;;;;;26.47;32.50;101269.78;6119182;23;45517;-64
2023/06/16 07:56:05;;;;;;;;;14.67;12.67;;;;;26.36;31.62;101269.22;6119168;23;45422;-64
2023/06/16 07:58:30;;;;;;;;;5.67;5.33;;;;;26.40;31.37;101273.63;6119220;23;45291;-64
2023/06/16 08:00:57;;;;;;;;;23.33;16.67;;;;;26.46;31.39;101277.09;6119168;23;45265;-64
2023/06/16 08:03:22;;;;;;;;;14.33;14.33;;;;;26.40;31.18;101263.59;6119973;23;45937;-64
2023/06/16 08:05:47;;;;;;;;;18.33;14.33;;;;;26.51;31.24;101281.53;6117218;23;47068;-64
2023/06/16 08:08:13;;;;;;;;;19.00;14.33;;;;;26.52;31.36;101265.03;6119990;23;45605;-65
2023/06/16 08:10:38;;;;;;;;;16.33;13.00;;;;;26.71;31.48;101259.88;6118781;23;45412;-65
2023/06/16 08:13:04;;;;;;;;;14.67;13.33;;;;;26.88;30.77;101261.16;6119745;23;45508;-65
2023/06/16 08:15:30;;;;;;;;;16.67;15.00;;;;;27.02;30.96;101253.38;6119921;23;45902;-64
2023/06/16 08:17:55;;;;;;;;;22.67;17.00;;;;;27.10;31.01;101247.63;6118905;23;45217;-64
2023/06/16 08:20:21;;;;;;;;;20.25;18.25;;;;;27.16;31.10;101258.41;6117775;23;45483;-64
2023/06/16 08:22:46;;;;;;;;;19.00;16.25;;;;;27.18;30.34;101251.00;6118495;23;45277;-65
2023/06/16 08:25:12;;;;;;;;;31.25;28.50;;;;;27.24;30.87;101248.06;6118963;23;45296;-65
2023/06/16 08:27:38;;;;;;;;;11.33;11.00;;;;;27.36;31.22;101250.38;6118169;23;45411;-64
2023/06/16 08:30:04;;;;;;;;;23.00;18.67;;;;;27.46;30.98;101248.22;6119226;23;45282;-65
2023/06/16 08:32:29;;;;;;;;;17.67;13.33;;;;;27.52;30.40;101248.00;6119626;23;45489;-65
2023/06/16 08:34:55;;;;;;;;;16.67;15.33;;;;;27.57;29.66;101242.34;6118886;23;46493;-66
2023/06/16 08:37:22;;;;;;;;;12.00;12.00;;;;;27.72;29.44;101241.75;6119091;23;45305;-66
2023/06/16 08:39:47;;;;;;;;;12.00;11.67;;;;;27.80;29.44;101243.31;6118050;23;45218;-66
2023/06/16 08:42:15;;;;;;;;;15.67;13.33;;;;;27.76;28.80;101229.69;6118570;23;45416;-66
2023/06/16 08:44:43;;;;;;;;;18.67;13.67;;;;;27.94;28.51;101235.50;6118240;23;45671;-66
2023/06/16 08:47:09;;;;;;;;;15.33;15.00;;;;;28.01;27.94;101241.63;6119586;23;45596;-65
2023/06/16 08:49:35;;;;;;;;;22.67;17.33;;;;;28.09;27.62;101236.75;6118579;23;45181;-67
2023/06/16 08:52:08;;;;;;;;;13.00;13.00;;;;;28.20;28.17;101239.09;6118513;23;45214;-68
2023/06/16 08:54:38;;;;;;;;;13.67;11.33;;;;;28.17;26.73;101214.47;6116554;23;48060;-65
2023/06/16 08:57:09;;;;;;;;;16.00;13.00;;;;;28.27;26.83;101230.50;6116423;23;46081;-66
2023/06/16 08:59:36;;;;;;;;;39.75;34.25;;;;;28.29;27.16;101222.22;6118470;23;45210;-67
2023/06/16 09:02:02;;;;;;;;;19.00;15.33;;;;;28.51;26.88;101236.00;6119190;23;45471;-67
2023/06/16 09:04:33;;;;;;;;;12.00;12.00;;;;;28.61;26.73;101231.03;6118296;23;46002;-66
2023/06/16 09:06:59;;;;;;;;;16.00;12.33;;;;;28.44;27.17;101187.72;6125531;23;45248;-67
2023/06/16 09:09:26;;;;;;;;;15.00;12.67;;;;;28.78;26.68;101233.09;6129146;23;44931;-67
2023/06/16 09:12:07;;;;;;;;;13.33;11.67;;;;;28.74;25.94;101202.09;6118281;23;45274;-66
2023/06/16 09:14:36;;;;;;;;;14.33;14.00;;;;;28.81;25.63;101206.34;6118593;23;46943;-70
2023/06/16 09:17:05;;;;;;;;;14.67;13.67;;;;;28.96;24.45;101218.56;6115178;23;45391;-67
2023/06/16 09:19:41;;;;;;;;;12.00;10.33;;;;;29.10;24.18;101228.06;6092550;23;45382;-66
2023/06/16 09:22:06;;;;;;;;;10.00;10.00;;;;;28.99;24.58;101207.41;6118458;23;45468;-66
2023/06/16 09:24:35;;;;;;;;;11.67;8.67;;;;;29.16;24.19;101227.81;6117590;23;46386;-66
2023/06/16 09:27:01;;;;;;;;;8.00;6.67;;;;;29.17;23.59;101227.75;6115604;23;45361;-66
2023/06/16 09:29:28;;;;;;;;;11.33;8.67;;;;;29.27;22.83;101227.34;6118917;23;45363;-66
2023/06/16 09:32:05;;;;;;;;;14.33;10.67;;;;;29.25;22.63;101212.75;6118985;23;45492;-66
2023/06/16 09:34:33;;;;;;;;;11.33;8.67;;;;;29.32;22.89;101217.94;6118052;23;45451;-66
2023/06/16 09:36:59;;;;;;;;;8.67;8.67;;;;;29.38;22.98;101223.13;6118463;23;45340;-66
2023/06/16 09:39:26;;;;;;;;;11.00;11.00;;;;;29.41;23.05;101219.38;6118116;23;45309;-68
2023/06/16 09:41:53;;;;;;;;;14.33;11.67;;;;;29.39;22.91;101210.28;6116152;23;45501;-66
2023/06/16 09:44:29;;;;;;;;;14.33;12.33;;;;;29.42;24.01;101218.41;6115573;23;48042;-66
2023/06/16 09:46:59;;;;;;;;;8.67;8.67;;;;;29.45;23.27;101215.53;6118229;23;45339;-67
2023/06/16 09:49:25;;;;;;;;;12.00;9.33;;;;;29.39;23.01;101202.03;6117808;23;45185;-66
2023/06/16 09:51:52;;;;;;;;;11.33;10.00;;;;;29.38;23.26;101183.72;6116387;23;45611;-67
2023/06/16 09:54:20;;;;;;;;;13.00;10.67;;;;;29.53;23.79;101207.81;6117213;23;46143;-66
2023/06/16 09:56:45;;;;;;;;;10.00;9.00;;;;;29.54;23.28;101212.34;6121631;23;45493;-66
2023/06/16 09:59:11;;;;;;;;;14.00;10.33;;;;;29.42;22.79;101190.88;6119818;23;45542;-65
2023/06/16 10:01:40;;;;;;;;;11.00;9.33;;;;;29.62;24.08;101216.59;6118591;23;45525;-65
2023/06/16 10:04:13;;;;;;;;;10.67;9.67;;;;;29.74;23.12;101218.78;6119321;23;45590;-67
2023/06/16 10:07:02;;;;;;;;;10.67;10.33;;;;;29.76;23.12;101220.53;6117423;23;45387;-67
2023/06/16 10:09:33;;;;;;;;;11.67;10.67;;;;;29.86;22.66;101212.72;6142508;23;45536;-66
2023/06/16 10:11:59;;;;;;;;;11.67;10.00;;;;;29.84;23.23;101214.66;6119955;23;45518;-67
2023/06/16 10:14:29;;;;;;;;;10.00;9.00;;;;;29.79;22.26;101211.25;6119318;23;46452;-65
2023/06/16 10:16:56;;;;;;;;;15.00;14.00;;;;;29.81;22.09;101214.81;6119510;23;45320;-65
2023/06/16 10:19:24;;;;;;;;;12.00;12.00;;;;;29.76;22.15;101212.25;6119935;23;45491;-65
2023/06/16 10:21:50;;;;;;;;;13.33;9.67;;;;;29.81;21.53;101213.94;6119585;23;45410;-65
2023/06/16 10:24:16;;;;;;;;;13.00;13.00;;;;;29.75;22.36;101193.94;6120059;23;46102;-66
2023/06/16 10:26:43;;;;;;;;;12.67;11.00;;;;;29.84;21.20;101198.16;6119176;23;45258;-66
2023/06/16 10:29:16;;;;;;;;;16.00;13.67;;;;;29.92;21.50;101208.81;6118990;23;45886;-66
2023/06/16 10:31:43;;;;;;;;;8.67;7.67;;;;;29.93;21.31;101202.34;6122175;23;45379;-66
2023/06/16 10:34:18;;;;;;;;;7.67;7.67;;;;;29.91;21.61;101196.00;6119114;23;46190;-67
2023/06/16 10:36:44;;;;;;;;;15.67;10.00;;;;;29.94;21.49;101191.22;6116422;23;45413;-65
2023/06/16 10:39:15;;;;;;;;;6.33;6.33;;;;;30.02;21.56;101210.16;6120641;23;45396;-67
2023/06/16 10:41:59;;;;;;;;;8.67;8.33;;;;;30.04;21.04;101199.94;6120623;23;45475;-66
2023/06/16 10:44:33;;;;;;;;;12.00;12.00;;;;;29.97;21.30;101190.19;6118846;23;47908;-60
2023/06/16 10:47:04;;;;;;;;;9.67;9.67;;;;;30.10;20.91;101207.91;6118582;23;45332;-68
2023/06/16 10:49:30;;;;;;;;;11.00;11.00;;;;;30.12;20.70;101202.34;6120139;23;45478;-66
2023/06/16 10:51:58;;;;;;;;;8.33;7.33;;;;;30.17;20.59;101205.75;6118889;23;45519;-67
2023/06/16 10:54:34;;;;;;;;;11.33;9.33;;;;;30.10;20.97;101193.25;6116578;23;48159;-65
2023/06/16 10:57:00;;;;;;;;;12.00;11.00;;;;;30.12;20.98;101192.19;6117964;23;45472;-68
2023/06/16 10:59:25;;;;;;;;;14.33;10.33;;;;;30.05;20.99;101173.31;6117671;23;45435;-66
2023/06/16 11:01:55;;;;;;;;;12.33;11.67;;;;;30.07;21.32;101190.66;6117536;23;45376;-67
2023/06/16 11:04:21;;;;;;;;;13.00;10.67;;;;;30.08;21.48;101186.94;6116529;23;47499;-65
2023/06/16 11:07:04;;;;;;;;;11.33;11.33;;;;;30.13;21.87;101193.13;6119347;23;45439;-65
2023/06/16 11:09:31;;;;;;;;;7.33;7.00;;;;;30.06;22.14;101172.31;6118724;23;45503;-66
2023/06/16 11:11:58;;;;;;;;;12.33;10.33;;;;;30.12;22.67;101189.44;6119115;23;45309;-66
2023/06/16 11:14:25;;;;;;;;;14.33;11.33;;;;;30.17;22.12;101191.97;6118661;23;46504;-66